Grantsdale, Montana
Current Conditions -  °F | °C
As of 12:53 PM on Tuesday 21 Oct 2014 (Local Time) from KMSO Reporting Station
Moderate Rain Moderate Rain  
Wind Chill:   Ceiling: 3600
Heat Index:   Visibility: 4mi
Dew Point:   Wind: 3mph
Humidity: 93%   Direction: 150°SSE
Pressure: 29.91"   Gusts: NA
Location:  46.2°N, 114.13°W
Report Text: KMSO 211853Z 15003KT 4SM RA BR OVC036 08/07 A2991 RMK AO2 SLP136 P0007 T00830072
Loading
Personal Weather Stations






























Interactive Weather Map
Tropical Storm Tracking
New forecast layout! Learn more

10-Day Weather Forecast

Advertisements
Track Severe Weather on mobile